createdAt,value
2018-04-18T00:01:41.460Z,90.20
2018-04-18T00:04:07.851Z,88.80
2018-04-18T00:06:34.194Z,89.40
2018-04-18T00:09:00.563Z,90.00
2018-04-18T00:11:26.941Z,90.40
2018-04-18T00:13:53.319Z,90.90
2018-04-18T00:16:19.697Z,91.00
2018-04-18T00:18:46.064Z,90.90
2018-04-18T00:21:12.433Z,90.50
2018-04-18T00:23:38.825Z,90.60
2018-04-18T00:26:05.196Z,90.60
2018-04-18T00:28:31.582Z,90.80
2018-04-18T00:30:58.711Z,90.60
2018-04-18T00:33:25.059Z,90.50
2018-04-18T00:35:52.180Z,91.00
2018-04-18T00:38:18.583Z,90.60
2018-04-18T00:40:45.020Z,91.30
2018-04-18T00:43:11.399Z,90.90
2018-04-18T00:45:37.787Z,91.10
2018-04-18T00:48:04.319Z,90.80
2018-04-18T00:50:30.701Z,90.60
2018-04-18T00:52:57.084Z,90.60
2018-04-18T00:55:23.443Z,91.00
2018-04-18T00:57:49.817Z,90.80
2018-04-18T01:00:16.940Z,91.50
2018-04-18T01:02:43.298Z,91.50
2018-04-18T01:05:10.424Z,90.90
2018-04-18T01:07:36.840Z,90.90
2018-04-18T01:10:03.222Z,90.70
2018-04-18T01:12:29.578Z,91.30
2018-04-18T01:14:56.010Z,91.10
2018-04-18T01:17:22.394Z,91.00
2018-04-18T01:19:48.783Z,91.40
2018-04-18T01:22:15.202Z,91.60
2018-04-18T01:24:41.580Z,91.40
2018-04-18T01:27:07.936Z,91.40
2018-04-18T01:29:35.116Z,91.50
2018-04-18T01:32:01.457Z,91.40
2018-04-18T01:34:27.847Z,91.60
2018-04-18T01:36:55.004Z,91.50
2018-04-18T01:39:22.158Z,90.90
2018-04-18T01:41:49.299Z,91.50
2018-04-18T01:44:16.472Z,91.60
2018-04-18T01:46:42.844Z,91.50
2018-04-18T01:49:20.228Z,91.60
2018-04-18T01:51:46.614Z,91.70
2018-04-18T01:54:13.014Z,91.60
2018-04-18T01:56:39.411Z,91.20
2018-04-18T01:59:05.780Z,91.40
2018-04-18T02:01:32.154Z,91.40
2018-04-18T02:03:58.503Z,91.30
2018-04-18T02:06:24.868Z,91.80
2018-04-18T02:08:51.268Z,91.40
2018-04-18T02:11:17.647Z,91.80
2018-04-18T02:13:44.032Z,91.80
2018-04-18T02:16:10.883Z,91.50
2018-04-18T02:18:37.275Z,91.80
2018-04-18T02:21:04.394Z,91.40
2018-04-18T02:23:30.773Z,91.30
2018-04-18T02:25:57.179Z,91.80
2018-04-18T02:28:24.337Z,92.40
2018-04-18T02:30:50.749Z,92.20
2018-04-18T02:33:17.895Z,91.80
2018-04-18T02:35:44.311Z,91.80
2018-04-18T02:38:10.668Z,92.00
2018-04-18T02:40:37.050Z,91.90
2018-04-18T02:43:04.555Z,92.30
2018-04-18T02:45:37.902Z,91.60
2018-04-18T02:48:04.436Z,91.70
2018-04-18T02:50:30.854Z,92.10
2018-04-18T02:52:57.247Z,92.00
2018-04-18T02:55:23.616Z,92.00
2018-04-18T02:57:50.017Z,92.40
2018-04-18T03:00:16.408Z,92.40
2018-04-18T03:02:42.774Z,92.40
2018-04-18T03:05:09.180Z,92.50
2018-04-18T03:07:35.578Z,92.30
2018-04-18T03:10:01.964Z,92.00
2018-04-18T03:12:28.341Z,92.30
2018-04-18T03:14:55.511Z,92.10
2018-04-18T03:17:21.871Z,92.00
2018-04-18T03:19:48.263Z,92.50
2018-04-18T03:22:14.635Z,92.80
2018-04-18T03:24:40.997Z,92.20
2018-04-18T03:27:07.369Z,92.40
2018-04-18T03:29:33.741Z,92.50
2018-04-18T03:32:00.095Z,92.50
2018-04-18T03:34:27.221Z,92.20
2018-04-18T03:36:53.634Z,91.80
2018-04-18T03:39:20.020Z,92.10
2018-04-18T03:41:47.151Z,92.50
2018-04-18T03:44:13.571Z,92.50
2018-04-18T03:46:39.960Z,92.20
2018-04-18T03:49:06.355Z,92.50
2018-04-18T03:51:32.689Z,92.50
2018-04-18T03:53:59.056Z,92.40
2018-04-18T03:56:25.414Z,92.40
2018-04-18T03:58:51.767Z,92.40
2018-04-18T04:01:18.113Z,92.50
2018-04-18T04:03:44.532Z,92.60
2018-04-18T04:06:10.887Z,92.60
2018-04-18T04:08:37.247Z,92.60
2018-04-18T04:11:04.358Z,92.50
2018-04-18T04:13:30.760Z,92.50
2018-04-18T04:15:57.152Z,92.50
2018-04-18T04:18:36.360Z,92.70
2018-04-18T04:24:15.777Z,92.80
2018-04-18T04:26:42.142Z,92.80
2018-04-18T04:29:08.502Z,92.60
2018-04-18T04:31:35.668Z,92.60
2018-04-18T04:34:02.094Z,92.60
2018-04-18T04:36:28.451Z,92.90
2018-04-18T04:38:54.856Z,92.80
2018-04-18T04:41:21.978Z,92.80
2018-04-18T04:43:48.348Z,92.80
2018-04-18T04:46:14.737Z,92.90
2018-04-18T04:48:41.096Z,92.90
2018-04-18T04:51:07.472Z,93.60
2018-04-18T04:53:33.903Z,93.60
2018-04-18T04:56:00.264Z,93.40
2018-04-18T04:58:26.663Z,92.80
2018-04-18T05:00:59.893Z,93.20
2018-04-18T05:03:26.223Z,93.20
2018-04-18T05:05:52.620Z,92.50
2018-04-18T05:08:18.997Z,92.70
2018-04-18T05:10:45.358Z,92.70
2018-04-18T05:13:11.730Z,92.90
2018-04-18T05:15:38.074Z,92.90
2018-04-18T05:18:04.418Z,92.90
2018-04-18T05:20:30.811Z,93.00
2018-04-18T05:22:58.627Z,92.90
2018-04-18T05:25:25.769Z,93.10
2018-04-18T05:27:52.136Z,93.40
2018-04-18T05:30:18.559Z,93.70
2018-04-18T05:32:45.698Z,93.40
2018-04-18T05:35:12.813Z,93.40
2018-04-18T05:37:39.193Z,93.30
2018-04-18T05:40:05.626Z,93.30
2018-04-18T05:42:33.243Z,92.80
2018-04-18T05:44:59.654Z,93.30
2018-04-18T05:47:26.050Z,93.50
2018-04-18T05:49:53.177Z,93.70
2018-04-18T05:52:19.563Z,93.60
2018-04-18T05:54:45.943Z,93.40
2018-04-18T05:57:13.108Z,93.60
2018-04-18T05:59:39.501Z,93.60
2018-04-18T06:02:05.900Z,93.50
2018-04-18T06:04:32.347Z,93.50
2018-04-18T06:06:58.737Z,93.40
2018-04-18T06:09:25.862Z,93.40
2018-04-18T06:11:52.291Z,93.40
2018-04-18T06:14:18.718Z,93.40
2018-04-18T06:16:45.269Z,93.30
2018-04-18T06:19:12.491Z,93.20
2018-04-18T06:21:38.925Z,93.20
2018-04-18T06:24:05.414Z,93.10
2018-04-18T06:26:32.600Z,93.00
2018-04-18T06:28:59.010Z,93.00
2018-04-18T06:31:25.472Z,92.90
2018-04-18T06:33:51.902Z,92.90
2018-04-18T06:36:18.362Z,92.80
2018-04-18T06:38:44.834Z,92.70
2018-04-18T06:41:12.045Z,92.50
2018-04-18T06:43:38.534Z,92.40
2018-04-18T06:46:04.980Z,92.20
2018-04-18T06:48:31.420Z,91.60
2018-04-18T06:50:57.847Z,91.60
2018-04-18T06:53:24.291Z,91.20
2018-04-18T06:55:50.731Z,91.00
2018-04-18T06:58:17.155Z,90.90
2018-04-18T07:00:43.777Z,90.90
2018-04-18T07:03:10.222Z,90.60
2018-04-18T07:05:36.674Z,90.50
2018-04-18T07:08:03.140Z,90.30
2018-04-18T07:10:29.586Z,90.10
2018-04-18T07:12:56.762Z,90.10
2018-04-18T07:15:23.969Z,89.70
2018-04-18T07:17:50.435Z,89.70
2018-04-18T07:20:18.129Z,89.80
2018-04-18T07:22:44.562Z,89.80
2018-04-18T07:25:11.000Z,89.20
2018-04-18T07:27:37.501Z,88.50
2018-04-18T07:30:04.733Z,87.90
2018-04-18T07:32:31.161Z,87.80
2018-04-18T07:34:57.581Z,86.30
2018-04-18T07:37:24.014Z,86.60
2018-04-18T07:39:50.452Z,85.90
2018-04-18T07:42:17.598Z,85.90
2018-04-18T07:44:44.016Z,85.30
2018-04-18T07:47:10.426Z,85.00
2018-04-18T07:49:36.857Z,84.10
2018-04-18T07:52:03.302Z,84.20
2018-04-18T07:54:29.732Z,83.80
2018-04-18T07:56:56.157Z,83.50
2018-04-18T07:59:22.579Z,84.30
2018-04-18T08:01:49.027Z,84.20
2018-04-18T08:04:15.462Z,83.80
2018-04-18T08:06:41.886Z,83.60
2018-04-18T08:09:08.387Z,83.20
2018-04-18T08:11:35.685Z,82.40
2018-04-18T08:14:09.095Z,82.30
2018-04-18T08:16:35.600Z,82.60
2018-04-18T08:19:02.844Z,83.50
2018-04-18T08:21:29.275Z,83.50
2018-04-18T08:23:56.477Z,84.90
2018-04-18T08:26:22.983Z,84.40
2018-04-18T08:28:49.404Z,84.60
2018-04-18T08:31:15.828Z,84.40
2018-04-18T08:33:42.322Z,84.50
2018-04-18T08:36:08.811Z,83.80
2018-04-18T08:38:36.206Z,83.00
2018-04-18T08:41:02.681Z,82.90
2018-04-18T08:43:30.598Z,82.10
2018-04-18T08:45:57.199Z,82.10
2018-04-18T08:48:24.402Z,81.20
2018-04-18T08:50:50.868Z,81.20
2018-04-18T08:53:18.181Z,80.40
2018-04-18T08:55:44.678Z,80.30
2018-04-18T08:58:11.172Z,78.60
2018-04-18T09:00:37.739Z,75.40
2018-04-18T09:03:04.254Z,74.90
2018-04-18T09:05:30.797Z,75.30
2018-04-18T09:07:57.281Z,77.10
2018-04-18T09:10:23.714Z,75.40
2018-04-18T09:12:50.145Z,73.00
2018-04-18T09:15:16.579Z,72.90
2018-04-18T09:17:42.983Z,71.10
2018-04-18T09:20:10.159Z,70.30
2018-04-18T09:22:36.699Z,70.30
2018-04-18T09:25:03.181Z,68.00
2018-04-18T09:27:30.345Z,69.00
2018-04-18T09:29:56.767Z,68.90
2018-04-18T09:32:23.933Z,67.30
2018-04-18T09:34:50.357Z,67.30
2018-04-18T09:37:16.817Z,68.30
2018-04-18T09:39:43.295Z,66.90
2018-04-18T09:42:09.686Z,65.90
2018-04-18T09:44:36.107Z,65.10
2018-04-18T09:47:02.551Z,63.80
2018-04-18T09:49:28.953Z,64.10
2018-04-18T09:51:55.376Z,64.00
2018-04-18T09:54:22.544Z,63.40
2018-04-18T09:56:48.987Z,63.30
2018-04-18T09:59:15.414Z,60.60
2018-04-18T10:01:41.872Z,58.90
2018-04-18T10:04:09.151Z,58.60
2018-04-18T10:06:35.651Z,57.60
2018-04-18T10:09:02.157Z,58.30
2018-04-18T10:11:28.620Z,58.70
2018-04-18T10:13:55.033Z,59.70
2018-04-18T10:16:22.179Z,57.20
2018-04-18T10:18:49.348Z,57.90
2018-04-18T10:21:15.757Z,57.90
2018-04-18T10:23:42.204Z,56.90
2018-04-18T10:26:08.644Z,54.80
2018-04-18T10:28:35.065Z,55.10
2018-04-18T10:31:01.513Z,54.90
2018-04-18T10:33:27.969Z,55.40
2018-04-18T10:35:54.388Z,53.40
2018-04-18T10:38:20.823Z,53.50
2018-04-18T10:40:47.240Z,53.50
2018-04-18T10:43:13.696Z,53.30
2018-04-18T10:45:40.128Z,53.30
2018-04-18T10:48:06.571Z,54.60
2018-04-18T10:50:32.992Z,53.60
2018-04-18T10:52:59.453Z,51.20
2018-04-18T10:55:25.855Z,51.80
2018-04-18T10:57:52.279Z,51.60
2018-04-18T11:00:18.738Z,50.90
2018-04-18T11:02:45.162Z,51.20
2018-04-18T11:05:11.611Z,51.30
2018-04-18T11:07:38.069Z,50.70
2018-04-18T11:10:04.477Z,49.80
2018-04-18T11:12:30.898Z,50.40
2018-04-18T11:14:57.349Z,49.80
2018-04-18T11:17:23.772Z,48.40
2018-04-18T11:19:50.172Z,47.40
2018-04-18T11:22:16.589Z,48.60
2018-04-18T11:24:43.052Z,49.70
2018-04-18T11:27:09.547Z,50.10
2018-04-18T11:29:35.979Z,48.90
2018-04-18T11:32:02.419Z,49.80
2018-04-18T11:34:29.589Z,50.00
2018-04-18T11:36:56.021Z,49.50
2018-04-18T11:39:23.216Z,49.40
2018-04-18T11:41:49.671Z,49.40
2018-04-18T11:44:16.123Z,48.90
2018-04-18T11:46:42.612Z,48.10
2018-04-18T11:49:09.039Z,47.90
2018-04-18T11:51:35.488Z,48.10
2018-04-18T11:54:01.987Z,48.10
2018-04-18T11:56:28.424Z,48.30
2018-04-18T11:58:54.888Z,47.90
2018-04-18T12:01:21.334Z,44.40
2018-04-18T12:03:47.786Z,45.80
2018-04-18T12:06:14.261Z,46.40
2018-04-18T12:08:40.707Z,45.90
2018-04-18T12:11:07.144Z,46.60
2018-04-18T12:13:33.630Z,47.30
2018-04-18T12:16:00.114Z,47.10
2018-04-18T12:18:26.549Z,45.90
2018-04-18T12:20:53.028Z,44.90
2018-04-18T12:23:19.458Z,44.90
2018-04-18T12:25:45.911Z,42.70
2018-04-18T12:28:12.346Z,42.80
2018-04-18T12:30:39.540Z,43.60
2018-04-18T12:33:05.969Z,43.50
2018-04-18T12:35:32.398Z,45.10
2018-04-18T12:37:58.845Z,45.50
2018-04-18T12:40:25.319Z,43.20
2018-04-18T12:42:51.787Z,43.50
2018-04-18T12:45:18.223Z,44.20
2018-04-18T12:47:44.711Z,42.30
2018-04-18T12:50:11.902Z,42.70
2018-04-18T12:52:38.313Z,42.60
2018-04-18T12:55:04.791Z,40.80
2018-04-18T12:57:31.347Z,40.00
2018-04-18T12:59:57.762Z,41.50
2018-04-18T13:02:24.198Z,42.00
2018-04-18T13:04:50.638Z,42.80
2018-04-18T13:07:17.126Z,41.20
2018-04-18T13:09:43.605Z,43.50
2018-04-18T13:12:10.088Z,39.70
2018-04-18T13:14:37.288Z,39.30
2018-04-18T13:17:03.731Z,38.60
2018-04-18T13:19:30.438Z,38.40
2018-04-18T13:21:56.876Z,36.40
2018-04-18T13:24:23.294Z,37.80
2018-04-18T13:26:50.478Z,36.60
2018-04-18T13:29:16.882Z,36.00
2018-04-18T13:31:43.312Z,34.00
2018-04-18T13:34:09.746Z,35.30
2018-04-18T13:36:36.912Z,35.50
2018-04-18T13:39:03.422Z,35.40
2018-04-18T13:41:30.648Z,33.00
2018-04-18T13:43:57.056Z,32.70
2018-04-18T13:46:23.484Z,34.00
2018-04-18T13:48:49.908Z,33.80
2018-04-18T13:51:16.364Z,33.80
2018-04-18T13:53:42.797Z,34.80
2018-04-18T13:56:09.218Z,34.40
2018-04-18T13:58:35.677Z,35.10
2018-04-18T14:01:02.089Z,35.70
2018-04-18T14:03:28.515Z,36.10
2018-04-18T14:05:54.937Z,33.30
2018-04-18T14:08:21.383Z,34.40
2018-04-18T14:10:47.795Z,34.00
2018-04-18T14:13:14.238Z,33.90
2018-04-18T14:15:40.686Z,34.10
2018-04-18T14:18:07.114Z,34.70
2018-04-18T14:20:33.534Z,34.30
2018-04-18T14:22:59.945Z,35.90
2018-04-18T14:25:27.109Z,36.50
2018-04-18T14:27:54.275Z,36.10
2018-04-18T14:30:20.693Z,36.10
2018-04-18T14:32:47.858Z,35.60
2018-04-18T14:35:14.274Z,35.50
2018-04-18T14:37:40.724Z,36.30
2018-04-18T14:40:07.165Z,37.90
2018-04-18T14:42:33.584Z,37.10
2018-04-18T14:45:00.014Z,39.00
2018-04-18T14:47:26.435Z,39.70
2018-04-18T14:49:53.596Z,40.80
2018-04-18T14:52:20.755Z,39.10
2018-04-18T14:54:47.202Z,39.10
2018-04-18T14:57:13.629Z,39.70
2018-04-18T14:59:40.073Z,40.40
2018-04-18T15:02:06.502Z,41.50
2018-04-18T15:04:32.939Z,40.10
2018-04-18T15:06:59.378Z,40.00
2018-04-18T15:09:25.802Z,40.30
2018-04-18T15:11:52.227Z,40.70
2018-04-18T15:14:18.653Z,39.40
2018-04-18T15:16:45.058Z,39.00
2018-04-18T15:19:11.498Z,39.20
2018-04-18T15:21:37.932Z,39.90
2018-04-18T15:24:05.108Z,38.80
2018-04-18T15:26:31.595Z,38.80
2018-04-18T15:28:58.003Z,40.70
2018-04-18T15:31:24.488Z,38.90
2018-04-18T15:33:50.907Z,39.30
2018-04-18T15:36:17.385Z,38.40
2018-04-18T15:38:43.793Z,39.50
2018-04-18T15:41:10.234Z,37.10
2018-04-18T15:43:37.411Z,35.20
2018-04-18T15:46:03.854Z,35.20
2018-04-18T15:48:30.285Z,35.20
2018-04-18T15:50:56.718Z,35.60
2018-04-18T15:53:23.150Z,35.90
2018-04-18T15:55:49.620Z,35.40
2018-04-18T15:58:16.094Z,34.70
2018-04-18T16:00:42.522Z,34.20
2018-04-18T16:03:09.692Z,31.10
2018-04-18T16:05:36.154Z,31.00
2018-04-18T16:08:02.601Z,31.60
2018-04-18T16:10:29.038Z,30.80
2018-04-18T16:12:55.471Z,31.70
2018-04-18T16:15:21.900Z,31.50
2018-04-18T16:17:48.326Z,30.50
2018-04-18T16:20:14.760Z,30.70
2018-04-18T16:22:41.176Z,30.40
2018-04-18T16:25:07.617Z,30.00
2018-04-18T16:27:34.037Z,28.80
2018-04-18T16:30:00.451Z,28.60
2018-04-18T16:32:26.918Z,29.00
2018-04-18T16:34:53.374Z,28.40
2018-04-18T16:37:19.804Z,26.90
2018-04-18T16:39:46.223Z,26.50
2018-04-18T16:42:19.519Z,26.40
2018-04-18T16:44:45.942Z,25.70
2018-04-18T16:47:12.368Z,25.70
2018-04-18T16:49:38.791Z,26.20
2018-04-18T16:52:05.205Z,25.40
2018-04-18T16:54:31.629Z,25.20
2018-04-18T16:56:58.813Z,25.90
2018-04-18T16:59:25.252Z,25.90
2018-04-18T17:01:51.696Z,25.60
2018-04-18T17:04:18.114Z,26.70
2018-04-18T17:06:44.591Z,25.90
2018-04-18T17:09:10.990Z,27.00
2018-04-18T17:11:37.412Z,27.30
2018-04-18T17:14:03.892Z,27.80
2018-04-18T17:16:30.318Z,28.20
2018-04-18T17:18:56.745Z,27.40
2018-04-18T17:21:23.148Z,27.80
2018-04-18T17:23:49.588Z,27.70
2018-04-18T17:26:16.009Z,28.00
2018-04-18T17:28:42.424Z,29.90
2018-04-18T17:31:09.668Z,30.20
2018-04-18T17:33:36.848Z,31.00
2018-04-18T17:36:03.314Z,31.00
2018-04-18T17:38:29.781Z,32.20
2018-04-18T17:40:56.978Z,35.20
2018-04-18T17:43:23.402Z,35.10
2018-04-18T17:45:49.838Z,39.00
2018-04-18T17:48:16.244Z,42.30
2018-04-18T17:50:43.404Z,44.20
2018-04-18T17:53:10.584Z,44.50
2018-04-18T17:55:37.073Z,44.50
2018-04-18T17:58:04.241Z,49.30
2018-04-18T18:00:30.713Z,49.30
2018-04-18T18:02:57.147Z,49.10
2018-04-18T18:05:23.562Z,49.20
2018-04-18T18:07:49.998Z,50.10
2018-04-18T18:10:16.424Z,52.70
2018-04-18T18:12:42.868Z,51.80
2018-04-18T18:15:09.300Z,49.00
2018-04-18T18:17:35.735Z,49.10
2018-04-18T18:20:02.248Z,49.10
2018-04-18T18:22:28.677Z,47.80
2018-04-18T18:24:55.903Z,47.20
2018-04-18T18:27:23.111Z,47.40
2018-04-18T18:29:49.575Z,47.40
2018-04-18T18:32:16.034Z,47.60
2018-04-18T18:34:43.190Z,48.70
2018-04-18T18:37:10.369Z,48.60
2018-04-18T18:39:36.783Z,48.60
2018-04-18T18:42:03.216Z,49.00
2018-04-18T18:44:29.642Z,48.60
2018-04-18T18:46:56.826Z,47.20
2018-04-18T18:49:23.242Z,47.20
2018-04-18T18:51:49.670Z,48.20
2018-04-18T18:54:16.135Z,49.70
2018-04-18T18:56:42.559Z,49.90
2018-04-18T18:59:08.996Z,50.20
2018-04-18T19:01:35.417Z,50.50
2018-04-18T19:04:01.841Z,52.30
2018-04-18T19:06:28.249Z,53.40
2018-04-18T19:08:54.692Z,55.00
2018-04-18T19:11:21.861Z,56.90
2018-04-18T19:13:48.301Z,56.90
2018-04-18T19:16:14.755Z,57.00
2018-04-18T19:18:41.196Z,58.20
2018-04-18T19:21:07.646Z,58.90
2018-04-18T19:23:34.053Z,59.50
2018-04-18T19:26:00.490Z,61.20
2018-04-18T19:28:26.993Z,62.00
2018-04-18T19:30:53.357Z,62.50
2018-04-18T19:33:19.794Z,63.40
2018-04-18T19:35:46.203Z,64.70
2018-04-18T19:38:12.641Z,64.80
2018-04-18T19:40:39.059Z,65.30
2018-04-18T19:43:05.515Z,66.20
2018-04-18T19:45:31.951Z,67.10
2018-04-18T19:47:58.429Z,67.30
2018-04-18T19:50:24.966Z,68.50
2018-04-18T19:52:51.487Z,69.50
2018-04-18T19:55:17.991Z,71.00
2018-04-18T19:57:44.489Z,69.80
2018-04-18T20:00:12.459Z,71.00
2018-04-18T20:02:39.691Z,70.20
2018-04-18T20:05:06.200Z,70.20
2018-04-18T20:07:32.695Z,70.00
2018-04-18T20:09:59.175Z,71.00
2018-04-18T20:12:25.697Z,71.00
2018-04-18T20:14:52.163Z,71.20
2018-04-18T20:17:18.675Z,71.80
2018-04-18T20:19:45.179Z,73.30
2018-04-18T20:22:11.671Z,73.60
2018-04-18T20:24:38.169Z,74.50
2018-04-18T20:27:04.742Z,75.50
2018-04-18T20:29:31.183Z,74.40
2018-04-18T20:31:57.665Z,73.60
2018-04-18T20:34:24.178Z,74.20
2018-04-18T20:36:50.724Z,74.90
2018-04-18T20:39:17.315Z,75.50
2018-04-18T20:41:53.733Z,76.40
2018-04-18T20:44:20.198Z,77.00
2018-04-18T20:46:46.630Z,76.40
2018-04-18T20:49:13.164Z,76.80
2018-04-18T20:51:39.649Z,77.70
2018-04-18T20:54:06.875Z,77.90
2018-04-18T20:56:33.381Z,78.60
2018-04-18T20:58:59.871Z,78.40
2018-04-18T21:01:27.125Z,79.30
2018-04-18T21:03:53.628Z,79.20
2018-04-18T21:06:20.093Z,79.80
2018-04-18T21:08:47.344Z,79.30
2018-04-18T21:11:14.559Z,79.70
2018-04-18T21:13:42.252Z,79.70
2018-04-18T21:16:09.495Z,79.40
2018-04-18T21:18:35.982Z,79.40
2018-04-18T21:21:02.490Z,78.90
2018-04-18T21:23:28.981Z,79.70
2018-04-18T21:25:55.443Z,80.20
2018-04-18T21:28:22.697Z,81.20
2018-04-18T21:30:49.902Z,81.70
2018-04-18T21:33:16.367Z,81.60
2018-04-18T21:35:42.895Z,81.70
2018-04-18T21:38:09.376Z,81.70
2018-04-18T21:40:35.830Z,81.80
2018-04-18T21:43:02.369Z,82.00
2018-04-18T21:45:28.874Z,81.70
2018-04-18T21:47:55.381Z,82.60
2018-04-18T21:50:21.869Z,82.70
2018-04-18T21:52:49.499Z,82.70
2018-04-18T21:55:16.744Z,83.90
2018-04-18T21:57:43.989Z,85.10
2018-04-18T22:00:11.207Z,85.30
2018-04-18T22:02:37.670Z,84.60
2018-04-18T22:05:04.871Z,84.90
2018-04-18T22:07:31.316Z,84.70
2018-04-18T22:09:57.939Z,84.60
2018-04-18T22:12:24.401Z,84.20
2018-04-18T22:14:50.862Z,83.70
2018-04-18T22:17:18.071Z,84.50
2018-04-18T22:19:44.576Z,85.00
2018-04-18T22:22:11.077Z,85.20
2018-04-18T22:24:37.632Z,85.50
2018-04-18T22:27:04.195Z,85.80
2018-04-18T22:29:30.671Z,86.00
2018-04-18T22:31:57.221Z,86.50
2018-04-18T22:34:23.681Z,85.40
2018-04-18T22:36:50.890Z,85.80
2018-04-18T22:39:17.385Z,85.80
2018-04-18T22:41:43.876Z,86.70
2018-04-18T22:44:10.355Z,85.80
2018-04-18T22:46:36.819Z,85.80
2018-04-18T22:49:03.293Z,85.60
2018-04-18T22:51:29.757Z,85.70
2018-04-18T22:53:56.991Z,86.30
2018-04-18T22:56:23.492Z,86.30
2018-04-18T22:58:49.971Z,85.80
2018-04-18T23:01:17.067Z,85.70
2018-04-18T23:03:43.530Z,85.80
2018-04-18T23:06:10.021Z,85.30
2018-04-18T23:08:36.544Z,84.70
2018-04-18T23:11:03.050Z,84.60
2018-04-18T23:13:29.488Z,84.30
2018-04-18T23:15:56.703Z,83.10
2018-04-18T23:18:23.190Z,83.10
2018-04-18T23:20:49.634Z,82.60
2018-04-18T23:23:16.085Z,83.20
2018-04-18T23:25:42.610Z,82.70
2018-04-18T23:28:09.114Z,81.90
2018-04-18T23:30:35.535Z,82.20
2018-04-18T23:33:02.752Z,83.20
2018-04-18T23:35:29.256Z,83.80
2018-04-18T23:37:55.728Z,84.50
2018-04-18T23:40:22.167Z,84.90
2018-04-18T23:42:48.630Z,85.10
2018-04-18T23:45:15.858Z,85.70
2018-04-18T23:47:42.314Z,85.70
2018-04-18T23:50:09.567Z,86.00
2018-04-18T23:52:36.005Z,86.00
2018-04-18T23:55:03.293Z,86.80
2018-04-18T23:57:29.867Z,86.70
2018-04-18T23:59:56.362Z,87.10
